Terminal Aerodrome Forecast
Issued by NWS Sterling, VA

Current Version | Previous Version | Text Only | Print | Product List | Glossary On
Versions: 1 2 3 4 5 6 7 8 9 10 11 12 13 14 15 16 17 18 19 20 21 22 23 24 25 26
965
FTUS41 KLWX 302320
TAFIAD
TAF
KIAD 302320Z 0100/0206 14008KT 5SM -RA BR SCT008 OVC025
     FM010600 14009KT 3SM RA BR BKN008 OVC015
     FM011200 14009KT 5SM -RA BR BKN008 OVC015
     FM011500 16007KT P6SM BKN008 OVC015
     FM011800 17006KT P6SM BKN015 OVC050
     FM012200 VRB04KT 3SM SHRA BR SCT008 BKN015 OVC050
     FM020300 VRB04KT 3SM SHRA BR BKN003 OVC015=

USA.gov is the U.S. government's official web portal to all federal, state and local government web resources and services.